Hauptseite
METAR-TAF:

METAR-TAF

Flughäfen :

Flugplatz Locarno

Locarno, Schweiz

Breite: 46-09-55N, Länge: 8-52-40E, Höhe: 198 m

Beobachtung

Neuester Wetterbericht von vor 24 Minuten, um 18:20 UTC
Wind 3 kt aus Ost
Temperatur 7°C
Luftfeuchtigkeit 76%
Luftdruck 1012 hPa
Sichtweite 10 km oder mehr
Aufgelockert bewölkt in der Höhe von 6100 ft

METAR: LSZL 221820Z AUTO 09003KT 9999NDV SCT061 07/03 Q1012 RMK

Zeit: 20:44 (18:44 UTC)

Prognose

Neuester Wetterbericht von vor 1 Stunde und 19 Minuten, um 17:25 UTC
Gültige Prognose vom 22 um 18 UTC bis 23 um 03 UTC
Wind 2 kt aus unterschiedlichen Richtungen
Sichtweite 10 km oder mehr
Leicht bewölkt in der Höhe von 2500 ft
Durchbrochene Bewölkung in der Höhe von 3500 ft

TAF: LSZL 221725Z 2218/2303 VRB02KT 9999 FEW025 BKN035

Wetterbeobachtungen und Prognosen von mehr als 4000 Flughäfen (METAR und TAF Bericht).

Die verfügbaren Stationen werden durch gelbe und rote Markierungen auf der Karte dargestellt.

Führen Sie die Maus auf sie, um den Namen der Station zu sehen.

Darauf klicken, um die Beobachtung von Wetterbeobachtungen und Prognosen zu sehen.

Um die Karte zu ändern : klicken Sie auf den grünen Tasten mit einem schwarzen Kreuz Zum Vergrößern, auf den grünen Button mit einem Gedankenstrich zu verkleinern, oder auf die grünen Pfeile für benachbarte Karten.


METAR-TAF: